Time;durP1;ratioP1;P1;durP2;ratioP2;P2;SDS_P1;SDS_P2;PMS_P1;PMS_P2;Temp;Humidity;BMP_temperature;BMP_pressure;BME280_temperature;BME280_humidity;BME280_pressure;Samples;Min_cycle;Max_cycle;Signal;HPM_P1;HPM_P2
2022/10/19 00:01:42;;;;;;;;;10.67;9.67;;;;;17.35;100.00;101624.50;4839497;29;44917;-83
2022/10/19 00:04:08;;;;;;;;;10.00;10.00;;;;;17.41;100.00;101631.66;4822096;29;45536;-83
2022/10/19 00:06:35;;;;;;;;;14.25;13.00;;;;;17.37;100.00;101622.69;4837754;29;44932;-83
2022/10/19 00:09:19;;;;;;;;;13.50;10.75;;;;;17.33;100.00;101611.91;4836720;29;45468;-84
2022/10/19 00:11:46;;;;;;;;;11.25;11.25;;;;;17.38;100.00;101616.41;4820953;29;45428;-83
2022/10/19 00:14:18;;;;;;;;;12.00;11.00;;;;;17.33;100.00;101610.16;4834370;29;45408;-84
2022/10/19 00:16:46;;;;;;;;;12.50;11.50;;;;;17.39;100.00;101614.59;4841031;29;45328;-84
2022/10/19 00:19:16;;;;;;;;;10.50;10.50;;;;;17.39;100.00;101607.47;4825202;29;45465;-83
2022/10/19 00:21:41;;;;;;;;;12.25;11.75;;;;;17.36;100.00;101609.25;4842328;29;44812;-84
2022/10/19 00:24:08;;;;;;;;;13.33;12.00;;;;;17.35;100.00;101610.13;4841619;29;45442;-83
2022/10/19 00:30:16;;;;;;;;;12.00;12.00;;;;;17.42;100.00;101609.25;4840030;29;44883;-84
2022/10/19 00:32:41;;;;;;;;;13.50;12.75;;;;;17.37;100.00;101593.13;4822398;29;45397;-84
2022/10/19 00:35:07;;;;;;;;;12.67;12.33;;;;;17.41;100.00;101591.34;4835758;29;45513;-84
2022/10/19 00:37:33;;;;;;;;;11.67;11.67;;;;;17.35;100.00;101581.47;4820596;29;47441;-84
2022/10/19 00:39:58;;;;;;;;;11.50;10.75;;;;;17.31;100.00;101579.69;4837578;29;44769;-83
2022/10/19 00:43:01;;;;;;;;;12.00;12.00;;;;;17.25;100.00;101584.13;4821844;29;45350;-83
2022/10/19 00:45:26;;;;;;;;;11.00;10.33;;;;;17.19;100.00;101574.31;4837833;29;45528;-84
2022/10/19 00:47:52;;;;;;;;;6.00;6.00;;;;;17.16;100.00;101567.13;4838374;29;46905;-84
2022/10/19 00:50:18;;;;;;;;;15.00;14.33;;;;;17.14;100.00;101571.59;4823581;29;45479;-84
2022/10/19 00:52:43;;;;;;;;;15.25;13.00;;;;;17.11;100.00;101563.56;4842120;29;45440;-84
2022/10/19 00:55:10;;;;;;;;;15.00;12.50;;;;;17.08;100.00;101571.59;4842428;29;45710;-83
2022/10/19 00:57:36;;;;;;;;;14.00;11.67;;;;;17.06;100.00;101573.38;4825851;29;47259;-84
2022/10/19 01:00:06;;;;;;;;;13.67;13.33;;;;;17.06;100.00;101567.13;4836708;29;45497;-83
2022/10/19 01:02:31;;;;;;;;;11.33;11.33;;;;;17.06;100.00;101559.06;4835398;29;45500;-83
2022/10/19 01:04:58;;;;;;;;;11.00;10.67;;;;;17.04;100.00;101558.16;4835783;29;45456;-83
2022/10/19 01:07:25;;;;;;;;;14.67;14.33;;;;;17.04;100.00;101559.06;4820726;29;46918;-83
2022/10/19 01:09:51;;;;;;;;;12.00;11.67;;;;;17.00;100.00;101547.41;4837786;29;44857;-83
2022/10/19 01:12:28;;;;;;;;;17.00;14.00;;;;;17.01;100.00;101559.06;4821839;29;45473;-83
2022/10/19 01:15:09;;;;;;;;;10.50;9.75;;;;;16.97;100.00;101571.59;4840207;29;45304;-83
2022/10/19 01:18:10;;;;;;;;;9.00;9.00;;;;;16.98;100.00;101561.75;4822423;29;45303;-83
2022/10/19 01:21:13;;;;;;;;;12.50;12.50;;;;;16.97;100.00;101558.16;4821486;29;45505;-83
2022/10/19 01:23:47;;;;;;;;;14.00;12.25;;;;;16.97;100.00;101560.84;4838438;29;45398;-83
2022/10/19 01:26:34;;;;;;;;;12.33;12.33;;;;;16.96;100.00;101556.34;4841507;29;45408;-83
2022/10/19 01:29:16;;;;;;;;;11.50;10.75;;;;;16.96;100.00;101558.16;4837933;29;46863;-83
2022/10/19 01:31:47;;;;;;;;;10.75;9.50;;;;;16.94;100.00;101555.47;4835179;29;45313;-83
2022/10/19 01:34:30;;;;;;;;;13.00;12.00;;;;;16.93;100.00;101556.38;4831487;29;45463;-82
2022/10/19 01:37:26;;;;;;;;;16.00;15.25;;;;;16.92;100.00;101553.66;4834369;29;45491;-83
2022/10/19 01:40:02;;;;;;;;;10.75;10.75;;;;;16.93;100.00;101545.63;4820867;29;46839;-83
2022/10/19 01:42:47;;;;;;;;;14.75;13.25;;;;;16.94;100.00;101538.44;4832777;29;45402;-84
2022/10/19 01:45:25;;;;;;;;;10.50;9.50;;;;;16.98;100.00;101543.81;4823521;29;45411;-84
2022/10/19 01:48:31;;;;;;;;;17.00;15.75;;;;;16.98;100.00;101542.94;4840071;29;45322;-84
2022/10/19 01:51:15;;;;;;;;;14.00;14.00;;;;;16.92;100.00;101537.56;4853023;29;46956;-84
2022/10/19 01:53:46;;;;;;;;;14.00;11.33;;;;;16.85;100.00;101531.28;4823255;29;44713;-84
2022/10/19 01:56:15;;;;;;;;;15.67;14.00;;;;;16.84;100.00;101539.34;4838684;29;44812;-84
2022/10/19 01:58:44;;;;;;;;;11.00;10.00;;;;;16.77;100.00;101525.88;4840188;29;45487;-83
2022/10/19 02:01:12;;;;;;;;;10.00;10.00;;;;;16.76;100.00;101529.47;4820528;29;46642;-83
2022/10/19 02:03:39;;;;;;;;;18.00;13.33;;;;;16.74;100.00;101522.28;4819878;29;44933;-83
2022/10/19 02:06:07;;;;;;;;;7.75;7.75;;;;;16.71;100.00;101514.22;4819898;29;45410;-84
2022/10/19 02:08:43;;;;;;;;;13.00;11.33;;;;;16.66;100.00;101499.88;4819698;29;45478;-84
2022/10/19 02:11:09;;;;;;;;;14.67;14.67;;;;;16.68;100.00;101506.16;4835888;29;45345;-85
2022/10/19 02:13:36;;;;;;;;;10.33;10.33;;;;;16.67;100.00;101502.56;4836041;29;45412;-83
2022/10/19 02:16:07;;;;;;;;;11.25;11.25;;;;;16.67;100.00;101496.31;4851142;29;45464;-83
2022/10/19 02:18:39;;;;;;;;;14.33;12.00;;;;;16.66;100.00;101491.81;4855500;29;45404;-83
2022/10/19 02:21:05;;;;;;;;;10.25;10.25;;;;;16.60;100.00;101487.34;4824568;29;46728;-84
2022/10/19 02:23:31;;;;;;;;;13.33;9.33;;;;;16.66;100.00;101497.19;4839049;29;45409;-83
2022/10/19 02:25:57;;;;;;;;;8.00;7.67;;;;;16.60;100.00;101473.91;4854898;29;44874;-83
2022/10/19 02:28:32;;;;;;;;;9.67;8.33;;;;;16.65;100.00;101480.19;4841410;29;44794;-84
2022/10/19 02:30:58;;;;;;;;;12.50;10.00;;;;;16.62;100.00;101471.22;4824352;29;47323;-84
2022/10/19 02:33:24;;;;;;;;;10.67;9.67;;;;;16.62;100.00;101477.50;4839197;29;44784;-83
2022/10/19 02:35:50;;;;;;;;;12.00;12.00;;;;;16.59;100.00;101470.34;4837940;29;45335;-84
2022/10/19 02:38:20;;;;;;;;;12.67;11.33;;;;;16.63;100.00;101473.94;4839736;29;45700;-84
2022/10/19 02:41:22;;;;;;;;;12.67;10.00;;;;;16.60;100.00;101472.16;4854471;29;46672;-84
2022/10/19 02:43:52;;;;;;;;;11.33;9.00;;;;;16.65;100.00;101482.00;4820141;29;45514;-84
2022/10/19 02:46:27;;;;;;;;;9.67;8.33;;;;;16.64;100.00;101473.00;4819674;29;45737;-83
2022/10/19 02:48:55;;;;;;;;;10.33;10.33;;;;;16.64;100.00;101466.75;4803348;29;45449;-84
2022/10/19 02:51:33;;;;;;;;;9.33;9.33;;;;;16.59;100.00;101467.66;4818440;29;47307;-83
2022/10/19 02:53:59;;;;;;;;;11.00;11.00;;;;;16.55;100.00;101460.47;4803372;29;45392;-83
2022/10/19 02:56:24;;;;;;;;;9.33;9.33;;;;;16.58;100.00;101467.63;4804149;29;45402;-84
2022/10/19 02:58:50;;;;;;;;;12.00;9.33;;;;;16.57;100.00;101453.31;4814590;29;44836;-83
2022/10/19 03:01:15;;;;;;;;;7.67;7.67;;;;;16.58;100.00;101449.75;4800660;29;44917;-84
2022/10/19 03:03:40;;;;;;;;;9.00;9.00;;;;;16.60;100.00;101456.03;4816056;29;45450;-84
2022/10/19 03:06:06;;;;;;;;;9.00;9.00;;;;;16.62;100.00;101449.75;4800602;29;45433;-84
2022/10/19 03:08:31;;;;;;;;;9.33;8.33;;;;;16.60;100.00;101456.03;4800248;29;45440;-82
2022/10/19 03:11:00;;;;;;;;;9.00;9.00;;;;;16.56;100.00;101440.81;4801111;29;45480;-83
2022/10/19 03:13:25;;;;;;;;;13.00;11.00;;;;;16.57;100.00;101434.53;4802247;29;45794;-83
2022/10/19 03:15:51;;;;;;;;;10.00;9.00;;;;;16.54;100.00;101428.25;4804215;29;45422;-84
2022/10/19 03:18:16;;;;;;;;;7.00;7.00;;;;;16.55;100.00;101435.44;4788791;29;45637;-84
2022/10/19 03:20:42;;;;;;;;;10.00;10.00;;;;;16.54;100.00;101439.91;4811290;29;48199;-83
2022/10/19 03:23:07;;;;;;;;;11.33;11.33;;;;;16.55;100.00;101440.81;4842499;29;44855;-85
2022/10/19 03:25:33;;;;;;;;;11.00;11.00;;;;;16.56;100.00;101426.47;4824864;29;45431;-84
2022/10/19 03:27:58;;;;;;;;;15.33;12.33;;;;;16.53;100.00;101415.75;4821866;29;44893;-82
2022/10/19 03:30:24;;;;;;;;;9.00;9.00;;;;;16.53;100.00;101415.75;4837606;29;47747;-83
2022/10/19 03:32:49;;;;;;;;;9.00;9.00;;;;;16.54;100.00;101422.88;4820275;29;45456;-83
2022/10/19 03:35:15;;;;;;;;;13.00;11.67;;;;;16.53;100.00;101413.94;4836045;29;45510;-83
2022/10/19 03:37:40;;;;;;;;;8.33;8.33;;;;;16.51;100.00;101413.03;4820302;29;45460;-83
2022/10/19 03:40:06;;;;;;;;;13.33;12.33;;;;;16.48;100.00;101405.00;4835362;29;46970;-83
2022/10/19 03:42:32;;;;;;;;;11.33;9.33;;;;;16.43;100.00;101404.09;4821231;29;44882;-83
2022/10/19 03:44:57;;;;;;;;;11.00;11.00;;;;;16.45;100.00;101405.00;4824390;29;45288;-82
2022/10/19 03:47:23;;;;;;;;;11.00;8.67;;;;;16.44;100.00;101402.31;4833904;29;45430;-83
2022/10/19 03:49:49;;;;;;;;;9.33;9.00;;;;;16.37;100.00;101388.88;4826384;29;47883;-83
2022/10/19 03:52:19;;;;;;;;;11.00;8.67;;;;;16.33;100.00;101392.44;4843324;29;45400;-83
2022/10/19 03:54:48;;;;;;;;;12.00;12.00;;;;;16.38;100.00;101401.41;4857121;29;45332;-82
2022/10/19 03:57:13;;;;;;;;;11.67;9.33;;;;;16.35;100.00;101393.34;4839489;29;45404;-84
2022/10/19 03:59:39;;;;;;;;;12.00;11.00;;;;;16.35;100.00;101389.78;4839025;29;45427;-84
2022/10/19 04:02:04;;;;;;;;;12.00;12.00;;;;;16.38;100.00;101393.38;4838682;29;45224;-84
2022/10/19 04:04:29;;;;;;;;;9.67;9.67;;;;;16.38;100.00;101405.88;4820861;29;45374;-84
2022/10/19 04:06:55;;;;;;;;;11.33;11.33;;;;;16.36;100.00;101399.59;4836548;29;45333;-84
2022/10/19 04:09:29;;;;;;;;;8.33;8.33;;;;;16.40;100.00;101406.75;4821277;29;47316;-83
2022/10/19 04:11:54;;;;;;;;;10.00;10.00;;;;;16.38;100.00;101408.56;4825812;29;45421;-84
2022/10/19 04:14:21;;;;;;;;;11.67;9.67;;;;;16.40;100.00;101412.13;4840746;29;44732;-83
2022/10/19 04:16:46;;;;;;;;;9.00;9.00;;;;;16.38;100.00;101408.56;4840771;29;45492;-84
2022/10/19 04:19:14;;;;;;;;;12.33;11.00;;;;;16.42;100.00;101415.75;4839411;29;46713;-83
2022/10/19 04:21:42;;;;;;;;;8.33;7.00;;;;;16.35;100.00;101406.78;4823141;29;45464;-84
2022/10/19 04:24:11;;;;;;;;;9.67;9.00;;;;;16.40;100.00;101414.81;4845218;29;45315;-83
2022/10/19 04:27:33;;;;;;;;;8.67;8.67;;;;;16.40;100.00;101413.06;4839106;29;45374;-85
2022/10/19 04:29:58;;;;;;;;;9.33;9.33;;;;;16.36;100.00;101411.25;4835946;29;45697;-83
2022/10/19 04:32:24;;;;;;;;;10.67;10.67;;;;;16.35;100.00;101405.88;4826585;29;44886;-84
2022/10/19 04:34:49;;;;;;;;;13.00;12.67;;;;;16.36;100.00;101408.56;4820227;29;45374;-83
2022/10/19 04:37:14;;;;;;;;;13.67;12.33;;;;;16.39;100.00;101407.66;4836369;29;45377;-83
2022/10/19 04:39:42;;;;;;;;;13.33;10.00;;;;;16.34;100.00;101404.06;4834461;29;47087;-83
2022/10/19 04:42:07;;;;;;;;;9.00;9.00;;;;;16.35;100.00;101413.94;4819990;29;45474;-84
2022/10/19 04:44:34;;;;;;;;;11.33;11.00;;;;;16.28;100.00;101382.59;4839106;29;45512;-83
2022/10/19 04:46:59;;;;;;;;;10.00;10.00;;;;;16.31;100.00;101387.97;4839321;29;45363;-85
2022/10/19 04:49:25;;;;;;;;;10.67;10.67;;;;;16.30;100.00;101388.88;4840152;29;45165;-84
2022/10/19 04:51:50;;;;;;;;;11.33;10.67;;;;;16.27;100.00;101387.06;4839958;29;45499;-83
2022/10/19 04:54:16;;;;;;;;;10.00;10.00;;;;;16.24;100.00;101368.31;4840870;29;45347;-83
2022/10/19 04:56:41;;;;;;;;;13.00;12.67;;;;;16.22;100.00;101363.81;4841478;29;44788;-84
2022/10/19 04:59:07;;;;;;;;;15.00;14.00;;;;;16.22;100.00;101361.13;4821276;29;48486;-83
2022/10/19 05:01:32;;;;;;;;;11.50;11.25;;;;;16.16;100.00;101352.19;4820774;29;44783;-83
2022/10/19 05:04:00;;;;;;;;;12.50;12.00;;;;;16.11;100.00;101342.34;4834759;29;45413;-83
2022/10/19 05:06:26;;;;;;;;;13.50;11.50;;;;;16.16;100.00;101345.94;4804320;29;45264;-83
2022/10/19 05:09:04;;;;;;;;;12.33;10.33;;;;;16.16;100.00;101348.63;4803877;29;45464;-83
2022/10/19 05:11:29;;;;;;;;;12.25;12.25;;;;;16.16;100.00;101346.81;4820526;29;45457;-82
2022/10/19 05:13:56;;;;;;;;;9.75;9.75;;;;;16.16;100.00;101346.81;4822302;29;45409;-83
2022/10/19 05:16:22;;;;;;;;;13.67;12.00;;;;;16.19;100.00;101349.50;4807221;29;45281;-84
2022/10/19 05:18:50;;;;;;;;;14.67;14.00;;;;;16.18;100.00;101345.03;4811393;29;47876;-83
2022/10/19 05:21:16;;;;;;;;;14.75;14.75;;;;;16.19;100.00;101352.19;4814460;29;45198;-83
2022/10/19 05:23:43;;;;;;;;;13.33;13.33;;;;;16.18;100.00;101350.41;4826089;29;45498;-84
2022/10/19 05:26:16;;;;;;;;;15.67;12.00;;;;;16.23;100.00;101352.19;4842365;29;45569;-84
2022/10/19 05:28:42;;;;;;;;;11.67;11.67;;;;;16.20;100.00;101345.94;4823212;29;46628;-84
2022/10/19 05:31:09;;;;;;;;;15.00;14.00;;;;;16.22;100.00;101351.31;4837774;29;45479;-84
2022/10/19 05:33:35;;;;;;;;;9.75;9.75;;;;;16.19;100.00;101344.13;4837916;29;44797;-83
2022/10/19 05:36:14;;;;;;;;;11.67;10.67;;;;;16.17;100.00;101340.53;4837825;29;44774;-83
2022/10/19 05:38:41;;;;;;;;;17.33;13.67;;;;;16.14;100.00;101327.16;4819887;29;46909;-83
2022/10/19 05:41:07;;;;;;;;;13.33;11.67;;;;;16.16;100.00;101325.34;4819725;29;45427;-84
2022/10/19 05:43:33;;;;;;;;;12.33;11.33;;;;;16.13;100.00;101319.97;4842291;29;45355;-82
2022/10/19 05:46:11;;;;;;;;;12.67;12.67;;;;;16.18;100.00;101322.69;4841006;29;45618;-83
2022/10/19 05:48:38;;;;;;;;;10.33;10.33;;;;;16.15;100.00;101318.19;4823259;29;46775;-83
2022/10/19 05:51:05;;;;;;;;;9.50;9.00;;;;;16.14;100.00;101319.09;4819317;29;44740;-84
2022/10/19 05:53:32;;;;;;;;;13.33;13.33;;;;;16.16;100.00;101319.09;4820641;29;45384;-83
2022/10/19 05:55:57;;;;;;;;;17.00;14.33;;;;;16.14;100.00;101311.03;4821407;29;45340;-82
2022/10/19 05:58:23;;;;;;;;;13.67;12.67;;;;;16.13;100.00;101308.34;4837190;29;45467;-84
2022/10/19 06:00:54;;;;;;;;;13.50;13.50;;;;;16.12;100.00;101310.16;4824254;29;45671;-84
2022/10/19 06:03:20;;;;;;;;;17.50;14.50;;;;;16.08;100.00;101300.31;4840705;29;44801;-85
2022/10/19 06:06:33;;;;;;;;;9.33;9.33;;;;;16.16;100.00;101320.00;4855145;29;44883;-83
2022/10/19 06:09:05;;;;;;;;;12.50;11.00;;;;;16.16;100.00;101333.41;4821552;29;45090;-84
2022/10/19 06:11:34;;;;;;;;;15.67;15.67;;;;;16.17;100.00;101329.81;4807329;29;45543;-84
2022/10/19 06:14:03;;;;;;;;;15.00;13.67;;;;;16.15;100.00;101325.34;4847742;28;45469;-83
2022/10/19 06:16:30;;;;;;;;;15.67;14.00;;;;;16.18;100.00;101333.41;4847191;29;45344;-84
2022/10/19 06:18:56;;;;;;;;;14.50;14.50;;;;;16.17;100.00;101321.75;4846111;29;46291;-85
2022/10/19 06:21:26;;;;;;;;;13.00;13.00;;;;;16.18;100.00;101318.19;4860997;29;45383;-84
2022/10/19 06:23:54;;;;;;;;;17.00;13.67;;;;;16.19;100.00;101316.41;4862708;29;44768;-84
2022/10/19 06:26:20;;;;;;;;;13.75;13.50;;;;;16.16;100.00;101303.00;4846360;29;45550;-85
2022/10/19 06:28:48;;;;;;;;;14.00;14.00;;;;;16.18;100.00;101302.09;4857672;29;48251;-83
2022/10/19 06:31:14;;;;;;;;;17.25;16.50;;;;;16.23;100.00;101306.56;4859167;29;45373;-83
2022/10/19 06:33:42;;;;;;;;;13.33;13.33;;;;;16.17;100.00;101302.97;4858859;29;44902;-84
2022/10/19 06:36:13;;;;;;;;;15.00;12.75;;;;;16.20;100.00;101307.47;4858470;29;44795;-84
2022/10/19 06:38:39;;;;;;;;;14.00;9.00;;;;;16.23;100.00;101307.44;4842806;29;46852;-83
2022/10/19 06:41:05;;;;;;;;;13.67;13.67;;;;;16.26;100.00;101309.22;4843626;29;45433;-83
2022/10/19 06:43:31;;;;;;;;;14.67;14.33;;;;;16.30;100.00;101311.03;4844608;29;44760;-83
2022/10/19 06:45:56;;;;;;;;;15.00;14.33;;;;;16.31;100.00;101302.09;4846621;29;45513;-85
2022/10/19 06:48:23;;;;;;;;;16.33;16.00;;;;;16.33;100.00;101309.25;4865909;28;45530;-84
2022/10/19 06:53:46;;;;;;;;;11.00;11.00;;;;;16.34;100.00;101292.25;4871403;23;45365;-84
2022/10/19 06:56:13;;;;;;;;;15.33;14.67;;;;;16.35;100.00;101301.19;4859946;29;45361;-84
2022/10/19 06:58:46;;;;;;;;;8.33;8.33;;;;;16.45;100.00;101315.50;4845714;29;46797;-84
2022/10/19 07:01:12;;;;;;;;;11.00;10.67;;;;;16.41;100.00;101303.88;4860637;29;45264;-85
2022/10/19 07:03:42;;;;;;;;;18.67;18.67;;;;;16.43;100.00;101299.38;4844065;29;44845;-83
2022/10/19 07:06:10;;;;;;;;;16.67;14.00;;;;;16.47;100.00;101303.88;4850618;29;44809;-83
2022/10/19 07:08:38;;;;;;;;;17.00;13.33;;;;;16.48;100.00;101302.97;4835168;29;45379;-84
2022/10/19 07:11:08;;;;;;;;;16.25;15.00;;;;;16.51;100.00;101300.28;4842487;29;45453;-83
2022/10/19 07:13:35;;;;;;;;;12.67;12.67;;;;;16.54;100.00;101302.97;4835915;29;44804;-85
2022/10/19 07:16:10;;;;;;;;;16.00;15.50;;;;;16.47;100.00;101274.31;4838387;29;45430;-85
2022/10/19 07:18:46;;;;;;;;;18.25;18.25;;;;;16.54;100.00;101285.94;4819630;29;45046;-85
2022/10/19 07:21:16;;;;;;;;;16.25;14.75;;;;;16.59;100.00;101287.72;4828692;29;45454;-84
2022/10/19 07:23:43;;;;;;;;;18.33;16.67;;;;;16.60;100.00;101275.19;4844150;29;45471;-83
2022/10/19 07:26:25;;;;;;;;;21.33;17.00;;;;;16.64;100.00;101276.09;4829128;29;44936;-85
2022/10/19 07:29:09;;;;;;;;;17.00;17.00;;;;;16.65;100.00;101286.81;4844742;29;45426;-85
2022/10/19 07:31:40;;;;;;;;;14.67;14.67;;;;;16.53;100.00;101255.53;4831668;29;45467;-85
2022/10/19 07:34:06;;;;;;;;;18.00;15.67;;;;;16.57;100.00;101264.47;4830376;29;45255;-85
2022/10/19 07:36:34;;;;;;;;;19.33;16.67;;;;;16.60;100.00;101272.50;4839711;29;44955;-84
2022/10/19 07:39:01;;;;;;;;;18.67;16.67;;;;;16.69;100.00;101282.34;4829629;29;46721;-84
2022/10/19 07:41:29;;;;;;;;;16.00;13.67;;;;;16.69;100.00;101276.97;4829221;29;45415;-85
2022/10/19 07:44:11;;;;;;;;;17.33;16.67;;;;;16.86;100.00;101293.97;4839875;29;44834;-83
2022/10/19 07:46:41;;;;;;;;;18.00;17.00;;;;;16.67;100.00;101251.91;4825993;29;45055;-83
2022/10/19 07:49:09;;;;;;;;;17.00;17.00;;;;;16.86;100.00;101283.22;4811050;29;46956;-85
2022/10/19 07:51:42;;;;;;;;;14.33;13.00;;;;;16.85;100.00;101259.06;4844085;29;45416;-83
2022/10/19 07:54:08;;;;;;;;;20.67;16.67;;;;;16.92;100.00;101253.63;4832754;29;44834;-83
2022/10/19 07:56:34;;;;;;;;;22.33;18.00;;;;;17.12;100.00;101283.13;4843969;29;45503;-84
2022/10/19 07:59:19;;;;;;;;;;;;;;;;;;;;;
2022/10/19 08:01:47;;;;;;;;;21.33;19.33;;;;;17.11;100.00;101265.22;4844410;29;72143;-83
2022/10/19 08:04:38;;;;;;;;;16.67;15.33;;;;;17.36;100.00;101275.84;4846094;29;45226;-84
2022/10/19 08:07:47;;;;;;;;;;;;;;;;;;;;;
2022/10/19 08:10:32;;;;;;;;;18.67;14.00;;;;;17.33;100.00;101248.97;4836530;29;75511;-84
2022/10/19 08:13:16;;;;;;;;;;;;;;;;;;;;;
2022/10/19 08:16:06;;;;;;;;;18.33;17.33;;;;;17.74;100.00;101278.28;4862226;28;67948;-84
2022/10/19 08:31:30;;;;;;;;;19.67;19.00;;;;;18.12;100.00;101258.31;3391512;23;45520;-84
2022/10/19 08:33:56;;;;;;;;;16.33;15.33;;;;;18.01;100.00;101230.56;4863306;28;45428;-83
2022/10/19 08:36:22;;;;;;;;;15.67;14.33;;;;;18.23;100.00;101258.19;4862715;29;45360;-83
2022/10/19 08:38:49;;;;;;;;;18.67;16.67;;;;;18.27;100.00;101261.75;4862365;29;44998;-83
2022/10/19 08:48:24;;;;;;;;;21.33;19.67;;;;;18.36;100.00;101235.63;4863497;28;45398;-85
2022/10/19 08:50:51;;;;;;;;;19.33;17.67;;;;;18.40;100.00;101247.28;4847551;29;45369;-83
2022/10/19 08:53:39;;;;;;;;;20.00;17.67;;;;;18.29;100.00;101224.94;4846582;29;45321;-83
2022/10/19 08:56:17;;;;;;;;;20.00;18.00;;;;;18.36;100.00;101241.03;4848945;29;45734;-83
2022/10/19 08:59:32;;;;;;;;;17.67;15.33;;;;;18.33;100.00;101242.84;4859163;29;45383;-83
2022/10/19 09:02:19;;;;;;;;;19.00;18.00;;;;;18.29;100.00;101238.41;4841511;29;45291;-83
2022/10/19 09:04:53;;;;;;;;;19.00;17.00;;;;;18.33;100.00;101245.53;4808315;29;46792;-82
2022/10/19 09:07:32;;;;;;;;;16.00;16.00;;;;;18.32;100.00;101246.44;4793729;29;45327;-85
2022/10/19 09:10:16;;;;;;;;;17.00;16.67;;;;;18.34;100.00;101248.22;4808991;29;45348;-84
2022/10/19 09:13:13;;;;;;;;;18.33;16.67;;;;;18.33;100.00;101224.00;4823989;29;45325;-84
2022/10/19 09:15:50;;;;;;;;;17.33;16.67;;;;;18.41;100.00;101229.31;4836881;29;46796;-83
2022/10/19 09:18:28;;;;;;;;;18.67;17.33;;;;;18.41;100.00;101221.22;4827355;29;45908;-84
2022/10/19 09:21:14;;;;;;;;;22.33;19.00;;;;;18.40;100.00;101220.34;4827836;29;44879;-84
2022/10/19 09:23:49;;;;;;;;;19.67;17.67;;;;;18.42;100.00;101223.00;4836136;29;44951;-83
2022/10/19 09:26:24;;;;;;;;;19.67;18.00;;;;;18.40;100.00;101212.28;4843648;29;47338;-85
2022/10/19 09:29:07;;;;;;;;;19.67;19.00;;;;;18.39;100.00;101202.38;4840261;29;45371;-84
2022/10/19 09:31:42;;;;;;;;;17.33;17.33;;;;;18.49;100.00;101211.28;4844075;29;45084;-84
2022/10/19 09:34:28;;;;;;;;;12.67;10.00;;;;;18.66;100.00;101219.16;4844742;29;44906;-84
2022/10/19 09:37:05;;;;;;;;;18.00;18.00;;;;;18.47;100.00;101170.88;4842106;29;45211;-84
2022/10/19 09:39:32;;;;;;;;;20.33;18.67;;;;;18.78;100.00;101216.31;4830281;29;45403;-83
2022/10/19 09:42:22;;;;;;;;;17.00;17.00;;;;;18.82;100.00;101226.16;4827909;29;45418;-84
2022/10/19 09:52:21;;;;;;;;;14.67;13.33;;;;;18.91;100.00;101193.72;4843334;29;44750;-83
2022/10/19 09:55:36;;;;;;;;;16.33;15.67;;;;;19.06;100.00;101205.22;4844450;29;45394;-82
2022/10/19 09:58:26;;;;;;;;;17.33;17.33;;;;;19.08;100.00;101216.88;4842033;29;45429;-83
2022/10/19 10:01:05;;;;;;;;;20.00;16.75;;;;;19.04;100.00;101194.44;4830386;29;45368;-83
2022/10/19 10:03:39;;;;;;;;;12.75;12.75;;;;;18.96;100.00;101174.78;4844348;29;45644;-84
2022/10/19 10:06:11;;;;;;;;;15.33;13.33;;;;;19.02;100.00;101168.41;4826583;29;44867;-83
2022/10/19 10:08:59;;;;;;;;;12.00;11.00;;;;;19.19;100.00;101185.25;4826305;29;44952;-84
2022/10/19 10:11:44;;;;;;;;;11.67;11.67;;;;;19.09;100.00;101157.53;4810320;29;45749;-84
2022/10/19 10:14:34;;;;;;;;;18.00;14.00;;;;;19.26;100.00;101176.16;4826628;29;45322;-83
2022/10/19 10:17:23;;;;;;;;;15.50;13.50;;;;;19.39;100.00;101193.06;4842657;29;45403;-83
2022/10/19 10:20:32;;;;;;;;;9.67;9.67;;;;;19.41;100.00;101185.84;4842384;29;45362;-84
2022/10/19 10:23:05;;;;;;;;;16.00;16.00;;;;;19.12;100.00;101135.03;4830751;29;44985;-84
2022/10/19 10:28:53;;;;;;;;;15.00;15.00;;;;;19.45;100.00;101170.47;4845200;29;44809;-85
2022/10/19 10:31:37;;;;;;;;;14.33;13.00;;;;;19.48;100.00;101176.72;4817802;29;45333;-83
2022/10/19 10:34:18;;;;;;;;;15.00;13.33;;;;;19.46;100.00;101156.09;4829309;29;45628;-86
2022/10/19 10:36:50;;;;;;;;;16.50;14.25;;;;;19.49;100.00;101151.53;4826271;29;45598;-84
2022/10/19 10:39:29;;;;;;;;;14.00;14.00;;;;;19.47;100.00;101152.44;4826969;29;44796;-84
2022/10/19 10:41:59;;;;;;;;;12.75;12.75;;;;;19.41;100.00;101141.75;4845808;29;45327;-84
2022/10/19 10:44:33;;;;;;;;;17.25;16.75;;;;;19.44;100.00;101136.34;4843042;29;47427;-84
2022/10/19 10:47:10;;;;;;;;;10.50;10.50;;;;;19.57;100.00;101137.88;4846425;29;45213;-83
2022/10/19 10:59:55;;;;;;;;;15.75;14.50;;;;;19.90;100.00;101125.66;4844575;29;45204;-85
2022/10/19 11:03:06;;;;;;;;;;;;;;;;;;;;;
2022/10/19 11:06:05;;;;;;;;;;;;;;;;;;;;;
2022/10/19 11:08:35;;;;;;;;;14.00;14.00;;;;;19.91;100.00;101075.25;4841933;29;74473;-83
2022/10/19 11:11:06;;;;;;;;;18.75;17.00;;;;;20.12;100.00;101098.28;4828151;29;45382;-84
2022/10/19 11:22:52;;;;;;;;;14.33;14.33;;;;;20.57;100.00;101090.13;4861360;28;44800;-83
2022/10/19 11:28:28;;;;;;;;;13.00;11.00;;;;;20.66;100.00;101045.81;4863272;28;45392;-84
2022/10/19 11:31:19;;;;;;;;;15.67;15.67;;;;;20.77;100.00;101059.97;4859595;29;45230;-84
2022/10/19 11:34:08;;;;;;;;;12.00;12.00;;;;;20.85;100.00;101044.47;4862477;29;45409;-85
2022/10/19 11:36:55;;;;;;;;;15.00;13.75;;;;;20.92;100.00;101034.38;4861861;29;45521;-84
2022/10/19 11:40:23;;;;;;;;;14.75;14.75;;;;;21.03;100.00;101044.97;4839453;29;44903;-86
2022/10/19 11:53:47;;;;;;;;;13.33;13.33;;;;;20.98;100.00;101008.09;4990228;23;45343;-84
2022/10/19 11:56:36;;;;;;;;;15.33;15.33;;;;;21.04;100.00;101000.75;4859097;29;46596;-84
2022/10/19 11:59:44;;;;;;;;;11.00;11.00;;;;;21.11;100.00;101005.09;4858465;29;45624;-84
2022/10/19 12:02:15;;;;;;;;;11.00;11.00;;;;;21.17;100.00;101005.81;4859554;29;44832;-83
2022/10/19 12:05:28;;;;;;;;;;;;;;;;;;;;;
2022/10/19 12:08:40;;;;;;;;;;;;;;;;;;;;;
2022/10/19 12:11:50;;;;;;;;;14.67;14.67;;;;;21.33;100.00;100998.19;4877583;29;72076;-84
2022/10/19 12:14:24;;;;;;;;;12.33;12.33;;;;;21.37;100.00;100997.19;4860276;29;45178;-84
2022/10/19 12:17:09;;;;;;;;;12.33;10.33;;;;;21.37;100.00;100990.91;4864699;29;45403;-83
2022/10/19 12:19:43;;;;;;;;;11.00;11.00;;;;;21.45;100.00;100998.81;4878012;29;46171;-84
2022/10/19 12:22:17;;;;;;;;;14.00;13.00;;;;;21.52;100.00;101003.16;4874639;29;45322;-84
2022/10/19 12:24:46;;;;;;;;;10.33;10.33;;;;;21.58;100.00;101006.56;4861446;29;44769;-82
2022/10/19 12:27:15;;;;;;;;;10.00;10.00;;;;;21.60;100.00;100993.00;4883697;29;45609;-85
2022/10/19 12:29:51;;;;;;;;;12.00;11.00;;;;;21.72;100.00;101003.47;4861465;29;46851;-85
2022/10/19 12:36:19;;;;;;;;;11.00;11.00;;;;;21.83;100.00;100996.88;4873741;29;45488;-84
2022/10/19 12:39:18;;;;;;;;;11.75;11.75;;;;;21.90;100.00;100991.25;4806255;29;45495;-83
2022/10/19 12:42:22;;;;;;;;;9.25;8.75;;;;;21.98;100.00;100975.66;4805127;29;46904;-84
2022/10/19 12:45:10;;;;;;;;;11.75;11.25;;;;;22.08;100.00;100964.56;4821555;29;44882;-85
2022/10/19 12:47:40;;;;;;;;;10.00;10.00;;;;;22.15;100.00;100956.19;4823233;29;45548;-84
2022/10/19 12:50:07;;;;;;;;;13.75;12.75;;;;;22.20;100.00;100952.44;4822179;29;45531;-85
2022/10/19 12:52:51;;;;;;;;;12.00;11.50;;;;;22.21;100.00;100951.53;4805946;29;46803;-83
2022/10/19 12:55:16;;;;;;;;;12.50;12.50;;;;;22.18;100.00;100947.97;4804815;29;45363;-82
2022/10/19 12:57:47;;;;;;;;;10.50;9.25;;;;;22.14;100.00;100930.03;4804988;29;46946;-83
2022/10/19 13:00:21;;;;;;;;;11.00;9.75;;;;;22.06;100.00;100929.38;4805104;29;45584;-82